Terminal Aerodrome Forecast
Issued by NWS Louisville, KY

Home | Current Version | Previous Version | Text Only | Print | Product List | Glossary On
Versions: 1 2 3 4 5 6 7 8 9 10 11 12 13 14 15 16 17 18 19 20 21
000
FTUS43 KLMK 181740
TAFBWG
TAF
KBWG 181740Z 1818/1918 10008KT P6SM FEW250
     FM190400 18007KT P6SM -SHRA OVC015 WS020/21040KT
     FM191000 19010KT P6SM -SHRA OVC010 WS020/21045KT
     FM191400 19012G25KT P6SM OVC015=

USA.gov is the U.S. government's official web portal to all federal, state and local government web resources and services.